sensor_id;sensor_type;location;lat;lon;timestamp;P1;durP1;ratioP1;P2;durP2;ratioP2
5959;SDS011;3006;50.956;7.002;2023-10-13T00:01:14;8.20;;;6.20;;
5959;SDS011;3006;50.956;7.002;2023-10-13T00:03:43;9.60;;;7.43;;
5959;SDS011;3006;50.956;7.002;2023-10-13T00:06:11;12.60;;;7.20;;
5959;SDS011;3006;50.956;7.002;2023-10-13T00:08:40;10.87;;;6.90;;
5959;SDS011;3006;50.956;7.002;2023-10-13T00:11:11;11.13;;;6.53;;
5959;SDS011;3006;50.956;7.002;2023-10-13T00:13:41;9.73;;;7.13;;
5959;SDS011;3006;50.956;7.002;2023-10-13T00:16:16;18.73;;;7.40;;
5959;SDS011;3006;50.956;7.002;2023-10-13T00:21:23;10.70;;;7.23;;
5959;SDS011;3006;50.956;7.002;2023-10-13T00:23:58;9.57;;;7.57;;
5959;SDS011;3006;50.956;7.002;2023-10-13T00:26:28;10.90;;;7.10;;
5959;SDS011;3006;50.956;7.002;2023-10-13T00:29:00;9.00;;;6.80;;
5959;SDS011;3006;50.956;7.002;2023-10-13T00:31:36;12.97;;;7.33;;
5959;SDS011;3006;50.956;7.002;2023-10-13T00:34:05;10.63;;;7.47;;
5959;SDS011;3006;50.956;7.002;2023-10-13T00:36:38;12.83;;;7.10;;
5959;SDS011;3006;50.956;7.002;2023-10-13T00:39:15;9.37;;;7.50;;
5959;SDS011;3006;50.956;7.002;2023-10-13T00:41:43;7.53;;;6.63;;
5959;SDS011;3006;50.956;7.002;2023-10-13T00:44:19;11.23;;;7.20;;
5959;SDS011;3006;50.956;7.002;2023-10-13T00:46:55;8.90;;;8.00;;
5959;SDS011;3006;50.956;7.002;2023-10-13T00:49:23;11.57;;;6.90;;
5959;SDS011;3006;50.956;7.002;2023-10-13T00:51:51;11.90;;;7.87;;
5959;SDS011;3006;50.956;7.002;2023-10-13T00:54:21;15.10;;;8.13;;
5959;SDS011;3006;50.956;7.002;2023-10-13T00:56:53;14.43;;;7.73;;
5959;SDS011;3006;50.956;7.002;2023-10-13T00:59:35;10.60;;;8.50;;
5959;SDS011;3006;50.956;7.002;2023-10-13T01:02:03;16.17;;;7.60;;
5959;SDS011;3006;50.956;7.002;2023-10-13T01:04:52;15.77;;;6.93;;
5959;SDS011;3006;50.956;7.002;2023-10-13T01:07:21;11.40;;;6.70;;
5959;SDS011;3006;50.956;7.002;2023-10-13T01:09:51;8.80;;;7.23;;
5959;SDS011;3006;50.956;7.002;2023-10-13T01:12:18;15.60;;;7.60;;
5959;SDS011;3006;50.956;7.002;2023-10-13T01:14:48;14.73;;;8.20;;
5959;SDS011;3006;50.956;7.002;2023-10-13T01:17:15;11.73;;;7.03;;
5959;SDS011;3006;50.956;7.002;2023-10-13T01:19:44;16.50;;;7.67;;
5959;SDS011;3006;50.956;7.002;2023-10-13T01:22:12;11.33;;;7.83;;
5959;SDS011;3006;50.956;7.002;2023-10-13T01:24:42;12.13;;;7.37;;
5959;SDS011;3006;50.956;7.002;2023-10-13T01:27:10;16.80;;;7.27;;
5959;SDS011;3006;50.956;7.002;2023-10-13T01:29:44;9.60;;;7.73;;
5959;SDS011;3006;50.956;7.002;2023-10-13T01:32:15;9.60;;;7.20;;
5959;SDS011;3006;50.956;7.002;2023-10-13T01:34:44;11.53;;;7.00;;
5959;SDS011;3006;50.956;7.002;2023-10-13T01:37:13;9.83;;;7.20;;
5959;SDS011;3006;50.956;7.002;2023-10-13T01:39:44;10.07;;;7.50;;
5959;SDS011;3006;50.956;7.002;2023-10-13T01:42:14;9.93;;;7.60;;
5959;SDS011;3006;50.956;7.002;2023-10-13T01:44:46;10.53;;;7.80;;
5959;SDS011;3006;50.956;7.002;2023-10-13T01:47:14;13.13;;;8.30;;
5959;SDS011;3006;50.956;7.002;2023-10-13T01:49:43;9.70;;;7.60;;
5959;SDS011;3006;50.956;7.002;2023-10-13T01:52:14;14.83;;;7.90;;
5959;SDS011;3006;50.956;7.002;2023-10-13T01:54:45;12.20;;;8.07;;
5959;SDS011;3006;50.956;7.002;2023-10-13T01:57:16;15.33;;;7.37;;
5959;SDS011;3006;50.956;7.002;2023-10-13T01:59:44;13.80;;;7.87;;
5959;SDS011;3006;50.956;7.002;2023-10-13T02:02:14;8.77;;;6.57;;
5959;SDS011;3006;50.956;7.002;2023-10-13T02:04:46;12.97;;;8.40;;
5959;SDS011;3006;50.956;7.002;2023-10-13T02:07:27;11.10;;;7.60;;
5959;SDS011;3006;50.956;7.002;2023-10-13T02:09:59;11.37;;;7.60;;
5959;SDS011;3006;50.956;7.002;2023-10-13T02:12:31;11.63;;;7.90;;
5959;SDS011;3006;50.956;7.002;2023-10-13T02:15:03;12.93;;;8.27;;
5959;SDS011;3006;50.956;7.002;2023-10-13T02:17:32;14.17;;;7.80;;
5959;SDS011;3006;50.956;7.002;2023-10-13T02:20:07;14.80;;;8.93;;
5959;SDS011;3006;50.956;7.002;2023-10-13T02:22:41;19.10;;;9.50;;
5959;SDS011;3006;50.956;7.002;2023-10-13T02:25:17;15.30;;;8.90;;
5959;SDS011;3006;50.956;7.002;2023-10-13T02:28:02;15.67;;;8.03;;
5959;SDS011;3006;50.956;7.002;2023-10-13T02:30:36;8.57;;;7.53;;
5959;SDS011;3006;50.956;7.002;2023-10-13T02:33:05;15.10;;;8.23;;
5959;SDS011;3006;50.956;7.002;2023-10-13T02:35:33;11.43;;;7.80;;
5959;SDS011;3006;50.956;7.002;2023-10-13T02:38:02;16.83;;;9.20;;
5959;SDS011;3006;50.956;7.002;2023-10-13T02:40:38;16.07;;;9.20;;
5959;SDS011;3006;50.956;7.002;2023-10-13T02:43:07;14.13;;;8.80;;
5959;SDS011;3006;50.956;7.002;2023-10-13T02:45:34;12.00;;;7.80;;
5959;SDS011;3006;50.956;7.002;2023-10-13T02:48:03;13.67;;;8.83;;
5959;SDS011;3006;50.956;7.002;2023-10-13T02:50:43;15.60;;;8.40;;
5959;SDS011;3006;50.956;7.002;2023-10-13T02:53:12;11.30;;;8.43;;
5959;SDS011;3006;50.956;7.002;2023-10-13T02:55:49;14.33;;;8.03;;
5959;SDS011;3006;50.956;7.002;2023-10-13T02:58:19;14.37;;;8.53;;
5959;SDS011;3006;50.956;7.002;2023-10-13T03:00:47;13.73;;;7.87;;
5959;SDS011;3006;50.956;7.002;2023-10-13T03:03:15;12.40;;;8.50;;
5959;SDS011;3006;50.956;7.002;2023-10-13T03:05:45;18.00;;;9.40;;
5959;SDS011;3006;50.956;7.002;2023-10-13T03:08:13;11.80;;;9.40;;
5959;SDS011;3006;50.956;7.002;2023-10-13T03:10:53;18.53;;;9.87;;
5959;SDS011;3006;50.956;7.002;2023-10-13T03:13:21;15.07;;;8.63;;
5959;SDS011;3006;50.956;7.002;2023-10-13T03:15:49;14.73;;;9.97;;
5959;SDS011;3006;50.956;7.002;2023-10-13T03:18:17;17.50;;;9.70;;
5959;SDS011;3006;50.956;7.002;2023-10-13T03:20:45;14.77;;;8.70;;
5959;SDS011;3006;50.956;7.002;2023-10-13T03:23:17;12.07;;;9.13;;
5959;SDS011;3006;50.956;7.002;2023-10-13T03:25:44;12.00;;;8.50;;
5959;SDS011;3006;50.956;7.002;2023-10-13T03:28:21;15.30;;;7.87;;
5959;SDS011;3006;50.956;7.002;2023-10-13T03:30:52;15.43;;;9.70;;
5959;SDS011;3006;50.956;7.002;2023-10-13T03:33:20;13.50;;;8.80;;
5959;SDS011;3006;50.956;7.002;2023-10-13T03:35:53;13.03;;;8.57;;
5959;SDS011;3006;50.956;7.002;2023-10-13T03:38:25;11.03;;;8.80;;
5959;SDS011;3006;50.956;7.002;2023-10-13T03:40:54;11.40;;;8.53;;
5959;SDS011;3006;50.956;7.002;2023-10-13T03:43:35;16.67;;;10.00;;
5959;SDS011;3006;50.956;7.002;2023-10-13T03:46:12;15.27;;;9.97;;
5959;SDS011;3006;50.956;7.002;2023-10-13T03:48:40;14.80;;;9.30;;
5959;SDS011;3006;50.956;7.002;2023-10-13T03:51:21;13.80;;;8.63;;
5959;SDS011;3006;50.956;7.002;2023-10-13T03:53:57;11.70;;;8.80;;
5959;SDS011;3006;50.956;7.002;2023-10-13T03:56:25;15.73;;;9.03;;
5959;SDS011;3006;50.956;7.002;2023-10-13T03:59:00;12.10;;;9.10;;
5959;SDS011;3006;50.956;7.002;2023-10-13T04:01:32;10.80;;;9.50;;
5959;SDS011;3006;50.956;7.002;2023-10-13T04:04:10;14.83;;;9.80;;
5959;SDS011;3006;50.956;7.002;2023-10-13T04:06:39;14.93;;;9.30;;
5959;SDS011;3006;50.956;7.002;2023-10-13T04:09:23;15.47;;;9.43;;
5959;SDS011;3006;50.956;7.002;2023-10-13T04:12:11;13.70;;;10.07;;
5959;SDS011;3006;50.956;7.002;2023-10-13T04:15:10;20.80;;;9.93;;
5959;SDS011;3006;50.956;7.002;2023-10-13T04:17:53;14.20;;;9.77;;
5959;SDS011;3006;50.956;7.002;2023-10-13T04:20:21;22.40;;;10.07;;
5959;SDS011;3006;50.956;7.002;2023-10-13T04:22:59;14.97;;;10.07;;
5959;SDS011;3006;50.956;7.002;2023-10-13T04:25:51;12.50;;;9.90;;
5959;SDS011;3006;50.956;7.002;2023-10-13T04:28:34;14.67;;;9.30;;
5959;SDS011;3006;50.956;7.002;2023-10-13T04:31:18;18.40;;;9.33;;
5959;SDS011;3006;50.956;7.002;2023-10-13T04:34:11;12.37;;;9.50;;
5959;SDS011;3006;50.956;7.002;2023-10-13T04:36:54;17.73;;;11.03;;
5959;SDS011;3006;50.956;7.002;2023-10-13T04:39:38;15.33;;;9.57;;
5959;SDS011;3006;50.956;7.002;2023-10-13T04:42:06;15.90;;;9.43;;
5959;SDS011;3006;50.956;7.002;2023-10-13T04:44:40;14.43;;;9.67;;
5959;SDS011;3006;50.956;7.002;2023-10-13T04:47:23;14.90;;;9.50;;
5959;SDS011;3006;50.956;7.002;2023-10-13T04:49:55;15.77;;;9.47;;
5959;SDS011;3006;50.956;7.002;2023-10-13T04:52:27;14.90;;;9.60;;
5959;SDS011;3006;50.956;7.002;2023-10-13T04:55:27;13.93;;;9.00;;
5959;SDS011;3006;50.956;7.002;2023-10-13T04:58:26;14.03;;;10.00;;
5959;SDS011;3006;50.956;7.002;2023-10-13T05:01:23;17.50;;;10.10;;
5959;SDS011;3006;50.956;7.002;2023-10-13T05:04:06;19.73;;;9.37;;
5959;SDS011;3006;50.956;7.002;2023-10-13T05:06:49;22.13;;;8.57;;
5959;SDS011;3006;50.956;7.002;2023-10-13T05:09:34;12.90;;;9.17;;
5959;SDS011;3006;50.956;7.002;2023-10-13T05:12:20;11.90;;;9.47;;
5959;SDS011;3006;50.956;7.002;2023-10-13T05:15:02;25.73;;;8.67;;
5959;SDS011;3006;50.956;7.002;2023-10-13T05:17:48;17.13;;;9.70;;
5959;SDS011;3006;50.956;7.002;2023-10-13T05:20:35;19.87;;;8.57;;
5959;SDS011;3006;50.956;7.002;2023-10-13T05:23:21;19.40;;;8.17;;
5959;SDS011;3006;50.956;7.002;2023-10-13T05:26:21;19.43;;;7.93;;
5959;SDS011;3006;50.956;7.002;2023-10-13T05:29:07;16.20;;;8.00;;
5959;SDS011;3006;50.956;7.002;2023-10-13T05:31:54;12.60;;;8.03;;
5959;SDS011;3006;50.956;7.002;2023-10-13T05:34:40;15.67;;;8.67;;
5959;SDS011;3006;50.956;7.002;2023-10-13T05:37:30;14.90;;;8.17;;
5959;SDS011;3006;50.956;7.002;2023-10-13T05:40:16;11.23;;;8.10;;
5959;SDS011;3006;50.956;7.002;2023-10-13T05:43:02;12.13;;;7.80;;
5959;SDS011;3006;50.956;7.002;2023-10-13T05:45:48;12.53;;;7.80;;
5959;SDS011;3006;50.956;7.002;2023-10-13T05:48:42;12.07;;;6.93;;
5959;SDS011;3006;50.956;7.002;2023-10-13T05:51:36;12.27;;;7.20;;
5959;SDS011;3006;50.956;7.002;2023-10-13T05:54:15;16.30;;;8.50;;
5959;SDS011;3006;50.956;7.002;2023-10-13T05:57:00;11.60;;;8.23;;
5959;SDS011;3006;50.956;7.002;2023-10-13T05:59:46;13.37;;;7.10;;
5959;SDS011;3006;50.956;7.002;2023-10-13T06:02:32;13.57;;;7.17;;
5959;SDS011;3006;50.956;7.002;2023-10-13T06:05:32;14.43;;;7.37;;
5959;SDS011;3006;50.956;7.002;2023-10-13T06:08:17;14.40;;;8.10;;
5959;SDS011;3006;50.956;7.002;2023-10-13T06:11:04;16.70;;;7.67;;
5959;SDS011;3006;50.956;7.002;2023-10-13T06:13:55;14.07;;;8.10;;
5959;SDS011;3006;50.956;7.002;2023-10-13T06:16:37;15.00;;;8.17;;
5959;SDS011;3006;50.956;7.002;2023-10-13T06:19:23;15.57;;;7.70;;
5959;SDS011;3006;50.956;7.002;2023-10-13T06:22:09;10.80;;;7.40;;
5959;SDS011;3006;50.956;7.002;2023-10-13T06:24:54;12.87;;;7.27;;
5959;SDS011;3006;50.956;7.002;2023-10-13T06:27:42;18.27;;;7.53;;
5959;SDS011;3006;50.956;7.002;2023-10-13T06:30:27;18.40;;;7.67;;
5959;SDS011;3006;50.956;7.002;2023-10-13T06:32:56;17.40;;;7.80;;
5959;SDS011;3006;50.956;7.002;2023-10-13T06:35:24;18.37;;;7.60;;
5959;SDS011;3006;50.956;7.002;2023-10-13T06:37:52;13.90;;;7.70;;
5959;SDS011;3006;50.956;7.002;2023-10-13T06:40:20;12.03;;;7.57;;
5959;SDS011;3006;50.956;7.002;2023-10-13T06:43:00;18.23;;;7.77;;
5959;SDS011;3006;50.956;7.002;2023-10-13T06:45:44;9.60;;;7.30;;
5959;SDS011;3006;50.956;7.002;2023-10-13T06:48:17;15.30;;;7.40;;
5959;SDS011;3006;50.956;7.002;2023-10-13T06:50:49;18.07;;;7.47;;
5959;SDS011;3006;50.956;7.002;2023-10-13T06:53:18;20.00;;;6.43;;
5959;SDS011;3006;50.956;7.002;2023-10-13T06:55:47;18.37;;;6.90;;
5959;SDS011;3006;50.956;7.002;2023-10-13T06:58:23;13.33;;;6.40;;
5959;SDS011;3006;50.956;7.002;2023-10-13T07:00:51;14.40;;;6.03;;
5959;SDS011;3006;50.956;7.002;2023-10-13T07:03:25;13.00;;;6.33;;
5959;SDS011;3006;50.956;7.002;2023-10-13T07:05:53;15.17;;;6.57;;
5959;SDS011;3006;50.956;7.002;2023-10-13T07:08:26;16.50;;;6.97;;
5959;SDS011;3006;50.956;7.002;2023-10-13T07:10:57;14.90;;;6.17;;
5959;SDS011;3006;50.956;7.002;2023-10-13T07:13:41;18.27;;;7.47;;
5959;SDS011;3006;50.956;7.002;2023-10-13T07:16:16;9.57;;;6.47;;
5959;SDS011;3006;50.956;7.002;2023-10-13T07:18:56;9.30;;;5.87;;
5959;SDS011;3006;50.956;7.002;2023-10-13T07:21:32;13.40;;;6.50;;
5959;SDS011;3006;50.956;7.002;2023-10-13T07:24:01;19.37;;;6.70;;
5959;SDS011;3006;50.956;7.002;2023-10-13T07:26:37;12.83;;;6.20;;
5959;SDS011;3006;50.956;7.002;2023-10-13T07:29:11;16.17;;;6.77;;
5959;SDS011;3006;50.956;7.002;2023-10-13T07:31:40;12.17;;;5.77;;
5959;SDS011;3006;50.956;7.002;2023-10-13T07:34:12;17.97;;;6.53;;
5959;SDS011;3006;50.956;7.002;2023-10-13T07:36:52;14.23;;;6.50;;
5959;SDS011;3006;50.956;7.002;2023-10-13T07:39:27;15.93;;;6.90;;
5959;SDS011;3006;50.956;7.002;2023-10-13T07:42:01;23.10;;;8.13;;
5959;SDS011;3006;50.956;7.002;2023-10-13T07:44:36;16.97;;;8.10;;
5959;SDS011;3006;50.956;7.002;2023-10-13T07:47:12;15.50;;;6.87;;
5959;SDS011;3006;50.956;7.002;2023-10-13T07:49:42;18.53;;;7.03;;
5959;SDS011;3006;50.956;7.002;2023-10-13T07:52:11;17.20;;;7.00;;
5959;SDS011;3006;50.956;7.002;2023-10-13T07:54:55;23.30;;;6.97;;
5959;SDS011;3006;50.956;7.002;2023-10-13T07:57:26;17.43;;;6.67;;
5959;SDS011;3006;50.956;7.002;2023-10-13T07:59:58;17.30;;;6.83;;
5959;SDS011;3006;50.956;7.002;2023-10-13T08:02:39;17.23;;;6.70;;
5959;SDS011;3006;50.956;7.002;2023-10-13T08:05:18;18.63;;;6.00;;
5959;SDS011;3006;50.956;7.002;2023-10-13T08:08:05;20.20;;;6.83;;
5959;SDS011;3006;50.956;7.002;2023-10-13T08:10:40;18.10;;;5.90;;
5959;SDS011;3006;50.956;7.002;2023-10-13T08:13:12;16.30;;;6.50;;
5959;SDS011;3006;50.956;7.002;2023-10-13T08:15:42;22.90;;;6.10;;
5959;SDS011;3006;50.956;7.002;2023-10-13T08:18:14;15.93;;;7.20;;
5959;SDS011;3006;50.956;7.002;2023-10-13T08:20:57;15.80;;;7.37;;
5959;SDS011;3006;50.956;7.002;2023-10-13T08:23:30;20.33;;;6.90;;
5959;SDS011;3006;50.956;7.002;2023-10-13T08:26:23;15.30;;;6.40;;
5959;SDS011;3006;50.956;7.002;2023-10-13T08:29:10;18.73;;;7.83;;
5959;SDS011;3006;50.956;7.002;2023-10-13T08:31:57;12.13;;;6.83;;
5959;SDS011;3006;50.956;7.002;2023-10-13T08:34:40;13.90;;;6.80;;
5959;SDS011;3006;50.956;7.002;2023-10-13T08:37:23;17.03;;;6.13;;
5959;SDS011;3006;50.956;7.002;2023-10-13T08:39:56;21.00;;;6.67;;
5959;SDS011;3006;50.956;7.002;2023-10-13T08:42:53;20.43;;;7.10;;
5959;SDS011;3006;50.956;7.002;2023-10-13T08:45:38;21.23;;;6.80;;
5959;SDS011;3006;50.956;7.002;2023-10-13T08:48:25;14.20;;;6.20;;
5959;SDS011;3006;50.956;7.002;2023-10-13T08:50:59;16.00;;;6.37;;
5959;SDS011;3006;50.956;7.002;2023-10-13T08:53:37;14.80;;;5.93;;
5959;SDS011;3006;50.956;7.002;2023-10-13T08:56:19;15.43;;;6.33;;
5959;SDS011;3006;50.956;7.002;2023-10-13T08:59:00;12.97;;;5.60;;
5959;SDS011;3006;50.956;7.002;2023-10-13T09:01:36;17.63;;;7.50;;
5959;SDS011;3006;50.956;7.002;2023-10-13T09:04:14;16.93;;;6.20;;
5959;SDS011;3006;50.956;7.002;2023-10-13T09:06:49;14.37;;;6.07;;
5959;SDS011;3006;50.956;7.002;2023-10-13T09:09:45;21.90;;;6.80;;
5959;SDS011;3006;50.956;7.002;2023-10-13T09:12:53;21.13;;;6.37;;
5959;SDS011;3006;50.956;7.002;2023-10-13T09:15:38;14.80;;;6.00;;
5959;SDS011;3006;50.956;7.002;2023-10-13T09:18:25;18.87;;;6.67;;
5959;SDS011;3006;50.956;7.002;2023-10-13T09:21:15;18.47;;;6.10;;
5959;SDS011;3006;50.956;7.002;2023-10-13T09:24:00;11.30;;;6.10;;
5959;SDS011;3006;50.956;7.002;2023-10-13T09:26:50;12.53;;;7.40;;
5959;SDS011;3006;50.956;7.002;2023-10-13T09:29:23;15.13;;;6.90;;
5959;SDS011;3006;50.956;7.002;2023-10-13T09:31:58;16.60;;;8.10;;
5959;SDS011;3006;50.956;7.002;2023-10-13T09:34:27;15.37;;;6.47;;
5959;SDS011;3006;50.956;7.002;2023-10-13T09:37:00;17.07;;;7.10;;
5959;SDS011;3006;50.956;7.002;2023-10-13T09:39:30;24.30;;;7.40;;
5959;SDS011;3006;50.956;7.002;2023-10-13T09:42:11;19.57;;;7.50;;
5959;SDS011;3006;50.956;7.002;2023-10-13T09:44:43;21.77;;;7.63;;
5959;SDS011;3006;50.956;7.002;2023-10-13T09:47:20;18.20;;;7.00;;
5959;SDS011;3006;50.956;7.002;2023-10-13T09:49:59;17.20;;;7.10;;
5959;SDS011;3006;50.956;7.002;2023-10-13T09:52:33;16.70;;;8.03;;
5959;SDS011;3006;50.956;7.002;2023-10-13T09:55:11;23.57;;;8.03;;
5959;SDS011;3006;50.956;7.002;2023-10-13T09:57:47;17.73;;;7.20;;
5959;SDS011;3006;50.956;7.002;2023-10-13T10:00:27;13.27;;;7.53;;
5959;SDS011;3006;50.956;7.002;2023-10-13T10:03:13;13.80;;;7.13;;
5959;SDS011;3006;50.956;7.002;2023-10-13T10:05:59;14.43;;;8.10;;
5959;SDS011;3006;50.956;7.002;2023-10-13T10:08:34;14.00;;;8.10;;
5959;SDS011;3006;50.956;7.002;2023-10-13T10:14:19;11.97;;;6.80;;
5959;SDS011;3006;50.956;7.002;2023-10-13T10:17:00;18.20;;;7.70;;
5959;SDS011;3006;50.956;7.002;2023-10-13T10:19:45;18.50;;;8.90;;
5959;SDS011;3006;50.956;7.002;2023-10-13T10:22:24;12.93;;;7.13;;
5959;SDS011;3006;50.956;7.002;2023-10-13T10:24:57;16.43;;;7.93;;
5959;SDS011;3006;50.956;7.002;2023-10-13T10:27:27;13.97;;;8.53;;
5959;SDS011;3006;50.956;7.002;2023-10-13T10:29:56;14.70;;;8.90;;
5959;SDS011;3006;50.956;7.002;2023-10-13T10:32:31;14.80;;;6.90;;
5959;SDS011;3006;50.956;7.002;2023-10-13T10:35:05;12.27;;;8.53;;
5959;SDS011;3006;50.956;7.002;2023-10-13T10:37:35;18.73;;;7.80;;
5959;SDS011;3006;50.956;7.002;2023-10-13T10:40:10;14.20;;;6.73;;
5959;SDS011;3006;50.956;7.002;2023-10-13T10:42:58;18.03;;;7.83;;
5959;SDS011;3006;50.956;7.002;2023-10-13T10:45:36;16.00;;;8.53;;
5959;SDS011;3006;50.956;7.002;2023-10-13T10:48:12;17.00;;;7.03;;
5959;SDS011;3006;50.956;7.002;2023-10-13T10:50:51;20.00;;;8.20;;
5959;SDS011;3006;50.956;7.002;2023-10-13T10:53:21;12.70;;;7.43;;
5959;SDS011;3006;50.956;7.002;2023-10-13T10:56:07;11.40;;;7.40;;
5959;SDS011;3006;50.956;7.002;2023-10-13T10:58:46;14.50;;;8.03;;
5959;SDS011;3006;50.956;7.002;2023-10-13T11:01:15;14.53;;;8.30;;
5959;SDS011;3006;50.956;7.002;2023-10-13T11:03:54;15.67;;;7.77;;
5959;SDS011;3006;50.956;7.002;2023-10-13T11:06:34;17.73;;;8.07;;
5959;SDS011;3006;50.956;7.002;2023-10-13T11:09:08;16.27;;;7.97;;
5959;SDS011;3006;50.956;7.002;2023-10-13T11:11:49;17.30;;;7.60;;
5959;SDS011;3006;50.956;7.002;2023-10-13T11:14:19;14.33;;;7.80;;
5959;SDS011;3006;50.956;7.002;2023-10-13T11:16:49;12.10;;;7.80;;
5959;SDS011;3006;50.956;7.002;2023-10-13T11:19:20;13.73;;;7.83;;
5959;SDS011;3006;50.956;7.002;2023-10-13T11:21:52;15.77;;;8.20;;
5959;SDS011;3006;50.956;7.002;2023-10-13T11:24:22;14.33;;;8.10;;
5959;SDS011;3006;50.956;7.002;2023-10-13T11:26:52;12.20;;;8.30;;
5959;SDS011;3006;50.956;7.002;2023-10-13T11:29:30;18.93;;;8.33;;
5959;SDS011;3006;50.956;7.002;2023-10-13T11:32:01;9.37;;;7.47;;
5959;SDS011;3006;50.956;7.002;2023-10-13T11:34:29;22.10;;;8.20;;
5959;SDS011;3006;50.956;7.002;2023-10-13T11:37:07;12.87;;;7.40;;
5959;SDS011;3006;50.956;7.002;2023-10-13T11:39:55;11.50;;;7.03;;
5959;SDS011;3006;50.956;7.002;2023-10-13T11:42:24;18.80;;;6.87;;
5959;SDS011;3006;50.956;7.002;2023-10-13T11:44:53;13.30;;;7.43;;
5959;SDS011;3006;50.956;7.002;2023-10-13T11:47:41;18.53;;;7.30;;
5959;SDS011;3006;50.956;7.002;2023-10-13T11:50:25;12.10;;;7.00;;
5959;SDS011;3006;50.956;7.002;2023-10-13T11:53:01;24.87;;;7.40;;
5959;SDS011;3006;50.956;7.002;2023-10-13T11:55:34;17.13;;;7.00;;
5959;SDS011;3006;50.956;7.002;2023-10-13T11:58:04;17.93;;;8.50;;
5959;SDS011;3006;50.956;7.002;2023-10-13T12:00:33;19.20;;;7.00;;
5959;SDS011;3006;50.956;7.002;2023-10-13T12:03:15;14.40;;;7.77;;
5959;SDS011;3006;50.956;7.002;2023-10-13T12:06:01;20.30;;;7.40;;
5959;SDS011;3006;50.956;7.002;2023-10-13T12:08:46;13.07;;;6.40;;
5959;SDS011;3006;50.956;7.002;2023-10-13T12:11:18;16.50;;;6.83;;
5959;SDS011;3006;50.956;7.002;2023-10-13T12:14:00;40.97;;;8.60;;
5959;SDS011;3006;50.956;7.002;2023-10-13T12:16:38;22.03;;;8.27;;
5959;SDS011;3006;50.956;7.002;2023-10-13T12:19:06;28.97;;;7.07;;
5959;SDS011;3006;50.956;7.002;2023-10-13T12:21:37;29.20;;;8.50;;
5959;SDS011;3006;50.956;7.002;2023-10-13T12:24:07;24.60;;;7.70;;
5959;SDS011;3006;50.956;7.002;2023-10-13T12:26:48;31.97;;;7.40;;
5959;SDS011;3006;50.956;7.002;2023-10-13T12:29:24;27.43;;;8.30;;
5959;SDS011;3006;50.956;7.002;2023-10-13T12:31:55;18.27;;;7.97;;
5959;SDS011;3006;50.956;7.002;2023-10-13T12:34:34;18.60;;;7.00;;
5959;SDS011;3006;50.956;7.002;2023-10-13T12:37:26;23.93;;;7.23;;
5959;SDS011;3006;50.956;7.002;2023-10-13T12:40:18;18.57;;;7.33;;
5959;SDS011;3006;50.956;7.002;2023-10-13T12:43:05;24.53;;;7.07;;
5959;SDS011;3006;50.956;7.002;2023-10-13T12:45:52;14.10;;;6.73;;
5959;SDS011;3006;50.956;7.002;2023-10-13T12:48:39;14.07;;;6.73;;
5959;SDS011;3006;50.956;7.002;2023-10-13T12:51:30;17.23;;;7.67;;
5959;SDS011;3006;50.956;7.002;2023-10-13T12:54:17;16.70;;;7.90;;
5959;SDS011;3006;50.956;7.002;2023-10-13T12:56:51;17.87;;;7.53;;
5959;SDS011;3006;50.956;7.002;2023-10-13T12:59:23;18.83;;;8.47;;
5959;SDS011;3006;50.956;7.002;2023-10-13T13:01:55;14.80;;;7.00;;
5959;SDS011;3006;50.956;7.002;2023-10-13T13:04:23;13.90;;;7.03;;
5959;SDS011;3006;50.956;7.002;2023-10-13T13:06:54;20.60;;;7.93;;
5959;SDS011;3006;50.956;7.002;2023-10-13T13:09:22;11.80;;;6.53;;
5959;SDS011;3006;50.956;7.002;2023-10-13T13:11:53;16.87;;;7.40;;
5959;SDS011;3006;50.956;7.002;2023-10-13T13:14:24;12.77;;;6.83;;
5959;SDS011;3006;50.956;7.002;2023-10-13T13:16:57;17.93;;;7.10;;
5959;SDS011;3006;50.956;7.002;2023-10-13T13:19:32;15.93;;;6.53;;
5959;SDS011;3006;50.956;7.002;2023-10-13T13:22:03;16.97;;;7.20;;
5959;SDS011;3006;50.956;7.002;2023-10-13T13:24:31;19.27;;;6.80;;
5959;SDS011;3006;50.956;7.002;2023-10-13T13:27:00;18.27;;;7.40;;
5959;SDS011;3006;50.956;7.002;2023-10-13T13:29:30;15.33;;;6.57;;
5959;SDS011;3006;50.956;7.002;2023-10-13T13:31:59;22.47;;;7.27;;
5959;SDS011;3006;50.956;7.002;2023-10-13T13:34:27;19.33;;;8.33;;
5959;SDS011;3006;50.956;7.002;2023-10-13T13:36:56;18.57;;;9.53;;
5959;SDS011;3006;50.956;7.002;2023-10-13T13:39:27;27.20;;;8.93;;
5959;SDS011;3006;50.956;7.002;2023-10-13T13:41:56;16.83;;;6.57;;
5959;SDS011;3006;50.956;7.002;2023-10-13T13:44:24;21.40;;;6.80;;
5959;SDS011;3006;50.956;7.002;2023-10-13T13:47:02;16.03;;;6.70;;
5959;SDS011;3006;50.956;7.002;2023-10-13T13:49:38;16.27;;;6.97;;
5959;SDS011;3006;50.956;7.002;2023-10-13T13:52:07;17.63;;;7.17;;
5959;SDS011;3006;50.956;7.002;2023-10-13T13:54:36;17.37;;;6.70;;
5959;SDS011;3006;50.956;7.002;2023-10-13T13:57:07;24.80;;;6.30;;
5959;SDS011;3006;50.956;7.002;2023-10-13T13:59:35;17.10;;;6.50;;
5959;SDS011;3006;50.956;7.002;2023-10-13T14:02:04;16.60;;;7.00;;
5959;SDS011;3006;50.956;7.002;2023-10-13T14:04:46;18.10;;;7.57;;
5959;SDS011;3006;50.956;7.002;2023-10-13T14:07:17;17.20;;;7.10;;
5959;SDS011;3006;50.956;7.002;2023-10-13T14:09:48;15.83;;;6.40;;
5959;SDS011;3006;50.956;7.002;2023-10-13T14:12:18;16.97;;;7.03;;
5959;SDS011;3006;50.956;7.002;2023-10-13T14:14:56;23.23;;;7.27;;
5959;SDS011;3006;50.956;7.002;2023-10-13T14:17:25;23.60;;;7.73;;
5959;SDS011;3006;50.956;7.002;2023-10-13T14:19:56;20.40;;;7.40;;
5959;SDS011;3006;50.956;7.002;2023-10-13T14:22:24;19.97;;;6.63;;
5959;SDS011;3006;50.956;7.002;2023-10-13T14:24:53;15.33;;;6.23;;
5959;SDS011;3006;50.956;7.002;2023-10-13T14:27:22;17.60;;;6.50;;
5959;SDS011;3006;50.956;7.002;2023-10-13T14:29:52;17.70;;;8.03;;
5959;SDS011;3006;50.956;7.002;2023-10-13T14:32:20;14.93;;;7.53;;
5959;SDS011;3006;50.956;7.002;2023-10-13T14:34:53;17.10;;;7.30;;
5959;SDS011;3006;50.956;7.002;2023-10-13T14:37:23;16.47;;;7.67;;
5959;SDS011;3006;50.956;7.002;2023-10-13T14:39:56;19.83;;;6.90;;
5959;SDS011;3006;50.956;7.002;2023-10-13T14:42:26;16.43;;;7.47;;
5959;SDS011;3006;50.956;7.002;2023-10-13T14:44:55;17.53;;;7.07;;
5959;SDS011;3006;50.956;7.002;2023-10-13T14:47:23;19.50;;;6.80;;
5959;SDS011;3006;50.956;7.002;2023-10-13T14:49:53;13.53;;;6.90;;
5959;SDS011;3006;50.956;7.002;2023-10-13T14:52:22;17.67;;;7.00;;
5959;SDS011;3006;50.956;7.002;2023-10-13T14:54:50;20.33;;;6.87;;
5959;SDS011;3006;50.956;7.002;2023-10-13T14:57:22;16.83;;;6.70;;
5959;SDS011;3006;50.956;7.002;2023-10-13T14:59:52;15.10;;;6.20;;
5959;SDS011;3006;50.956;7.002;2023-10-13T15:02:20;16.23;;;6.57;;
5959;SDS011;3006;50.956;7.002;2023-10-13T15:04:49;15.03;;;6.40;;
5959;SDS011;3006;50.956;7.002;2023-10-13T15:07:19;20.43;;;6.27;;
5959;SDS011;3006;50.956;7.002;2023-10-13T15:09:49;13.37;;;6.20;;
5959;SDS011;3006;50.956;7.002;2023-10-13T15:12:17;14.17;;;6.30;;
5959;SDS011;3006;50.956;7.002;2023-10-13T15:14:51;13.73;;;5.60;;
5959;SDS011;3006;50.956;7.002;2023-10-13T15:17:23;16.43;;;6.67;;
5959;SDS011;3006;50.956;7.002;2023-10-13T15:19:54;18.00;;;6.20;;
5959;SDS011;3006;50.956;7.002;2023-10-13T15:22:24;11.77;;;5.90;;
5959;SDS011;3006;50.956;7.002;2023-10-13T15:24:54;14.40;;;7.10;;
5959;SDS011;3006;50.956;7.002;2023-10-13T15:27:36;15.67;;;6.90;;
5959;SDS011;3006;50.956;7.002;2023-10-13T15:30:08;18.50;;;7.20;;
5959;SDS011;3006;50.956;7.002;2023-10-13T15:32:46;17.03;;;6.70;;
5959;SDS011;3006;50.956;7.002;2023-10-13T15:35:15;12.07;;;5.87;;
5959;SDS011;3006;50.956;7.002;2023-10-13T15:37:45;15.97;;;7.30;;
5959;SDS011;3006;50.956;7.002;2023-10-13T15:40:15;16.30;;;7.67;;
5959;SDS011;3006;50.956;7.002;2023-10-13T15:42:43;13.47;;;8.43;;
5959;SDS011;3006;50.956;7.002;2023-10-13T15:45:12;16.33;;;7.00;;
5959;SDS011;3006;50.956;7.002;2023-10-13T15:47:48;11.20;;;6.17;;
5959;SDS011;3006;50.956;7.002;2023-10-13T15:50:19;15.17;;;7.40;;
5959;SDS011;3006;50.956;7.002;2023-10-13T15:52:50;9.33;;;5.73;;
5959;SDS011;3006;50.956;7.002;2023-10-13T15:55:18;18.27;;;5.87;;
5959;SDS011;3006;50.956;7.002;2023-10-13T15:57:46;12.87;;;6.17;;
5959;SDS011;3006;50.956;7.002;2023-10-13T16:00:20;20.43;;;7.13;;